sensor_id;sensor_type;location;lat;lon;timestamp;pressure;altitude;pressure_sealevel;temperature;humidity
44079;BME280;29744;49.078;12.878;2023-02-17T00:00:09;97197.81;;;15.28;31.46
44079;BME280;29744;49.078;12.878;2023-02-17T00:05:10;97200.66;;;15.23;31.06
44079;BME280;29744;49.078;12.878;2023-02-17T00:10:10;97192.38;;;15.19;31.38
44079;BME280;29744;49.078;12.878;2023-02-17T00:15:10;97194.59;;;15.17;31.23
44079;BME280;29744;49.078;12.878;2023-02-17T00:20:11;97189.00;;;15.13;31.46
44079;BME280;29744;49.078;12.878;2023-02-17T00:25:11;97177.22;;;15.09;31.58
44079;BME280;29744;49.078;12.878;2023-02-17T00:30:12;97175.13;;;15.06;31.65
44079;BME280;29744;49.078;12.878;2023-02-17T00:35:15;97167.66;;;15.03;31.64
44079;BME280;29744;49.078;12.878;2023-02-17T00:40:15;97172.84;;;15.00;31.59
44079;BME280;29744;49.078;12.878;2023-02-17T00:45:16;97170.75;;;14.97;31.81
44079;BME280;29744;49.078;12.878;2023-02-17T00:50:16;97165.19;;;14.93;31.36
44079;BME280;29744;49.078;12.878;2023-02-17T00:55:17;97172.78;;;14.91;31.69
44079;BME280;29744;49.078;12.878;2023-02-17T01:00:17;97176.41;;;14.87;31.26
44079;BME280;29744;49.078;12.878;2023-02-17T01:05:18;97175.13;;;14.84;31.85
44079;BME280;29744;49.078;12.878;2023-02-17T01:10:18;97173.84;;;14.81;31.48
44079;BME280;29744;49.078;12.878;2023-02-17T01:15:18;97169.84;;;14.79;31.37
44079;BME280;29744;49.078;12.878;2023-02-17T01:20:19;97180.16;;;14.77;31.92
44079;BME280;29744;49.078;12.878;2023-02-17T01:25:19;97176.16;;;14.74;31.94
44079;BME280;29744;49.078;12.878;2023-02-17T01:30:19;97176.78;;;14.71;31.70
44079;BME280;29744;49.078;12.878;2023-02-17T01:35:20;97171.19;;;14.68;31.78
44079;BME280;29744;49.078;12.878;2023-02-17T01:40:20;97166.09;;;14.66;32.02
44079;BME280;29744;49.078;12.878;2023-02-17T01:50:24;97141.94;;;14.61;31.81
44079;BME280;29744;49.078;12.878;2023-02-17T01:55:25;97147.16;;;14.58;31.54
44079;BME280;29744;49.078;12.878;2023-02-17T02:00:27;97136.66;;;14.56;32.08
44079;BME280;29744;49.078;12.878;2023-02-17T02:05:29;97131.06;;;14.53;31.81
44079;BME280;29744;49.078;12.878;2023-02-17T02:10:29;97109.78;;;14.51;32.25
44079;BME280;29744;49.078;12.878;2023-02-17T02:15:34;97102.31;;;14.48;32.07
44079;BME280;29744;49.078;12.878;2023-02-17T02:36:59;97080.16;;;14.37;32.09
44079;BME280;29744;49.078;12.878;2023-02-17T02:42:05;97097.75;;;14.35;32.12
44079;BME280;29744;49.078;12.878;2023-02-17T02:57:50;97074.22;;;14.27;32.12
44079;BME280;29744;49.078;12.878;2023-02-17T03:03:23;97078.31;;;14.24;32.31
44079;BME280;29744;49.078;12.878;2023-02-17T03:08:45;97076.72;;;14.23;32.35
44079;BME280;29744;49.078;12.878;2023-02-17T03:13:47;97071.59;;;14.22;32.19
44079;BME280;29744;49.078;12.878;2023-02-17T03:18:48;97068.09;;;14.21;32.21
44079;BME280;29744;49.078;12.878;2023-02-17T03:23:48;97052.22;;;14.19;32.58
44079;BME280;29744;49.078;12.878;2023-02-17T03:28:48;97054.44;;;14.17;32.51
44079;BME280;29744;49.078;12.878;2023-02-17T03:33:49;97057.13;;;14.17;32.56
44079;BME280;29744;49.078;12.878;2023-02-17T03:38:49;97058.53;;;14.15;32.10
44079;BME280;29744;49.078;12.878;2023-02-17T03:43:50;97059.66;;;14.14;32.65
44079;BME280;29744;49.078;12.878;2023-02-17T03:48:50;97065.34;;;14.12;32.32
44079;BME280;29744;49.078;12.878;2023-02-17T03:53:51;97073.75;;;14.11;32.59
44079;BME280;29744;49.078;12.878;2023-02-17T03:58:51;97076.75;;;14.09;32.16
44079;BME280;29744;49.078;12.878;2023-02-17T04:03:51;97070.56;;;14.09;32.54
44079;BME280;29744;49.078;12.878;2023-02-17T04:08:52;97075.44;;;14.07;32.18
44079;BME280;29744;49.078;12.878;2023-02-17T04:13:52;97068.78;;;14.04;32.07
44079;BME280;29744;49.078;12.878;2023-02-17T04:18:52;97080.66;;;14.03;32.28
44079;BME280;29744;49.078;12.878;2023-02-17T04:23:53;97069.06;;;14.03;32.66
44079;BME280;29744;49.078;12.878;2023-02-17T04:28:54;97060.50;;;14.01;32.63
44079;BME280;29744;49.078;12.878;2023-02-17T04:33:54;97075.38;;;13.98;32.65
44079;BME280;29744;49.078;12.878;2023-02-17T04:38:54;97067.28;;;13.98;32.45
44079;BME280;29744;49.078;12.878;2023-02-17T04:43:55;97076.97;;;13.99;32.20
44079;BME280;29744;49.078;12.878;2023-02-17T04:48:55;97087.16;;;14.02;32.40
44079;BME280;29744;49.078;12.878;2023-02-17T04:53:55;97090.84;;;14.06;32.08
44079;BME280;29744;49.078;12.878;2023-02-17T04:58:55;97081.22;;;14.14;32.48
44079;BME280;29744;49.078;12.878;2023-02-17T05:03:56;97093.72;;;14.24;32.11
44079;BME280;29744;49.078;12.878;2023-02-17T05:08:56;97067.78;;;14.36;32.46
44079;BME280;29744;49.078;12.878;2023-02-17T05:13:56;97051.03;;;14.48;32.61
44079;BME280;29744;49.078;12.878;2023-02-17T05:18:57;97050.16;;;14.61;32.51
44079;BME280;29744;49.078;12.878;2023-02-17T05:23:57;97050.56;;;14.77;32.17
44079;BME280;29744;49.078;12.878;2023-02-17T05:28:57;97046.66;;;14.92;32.03
44079;BME280;29744;49.078;12.878;2023-02-17T05:33:58;97037.84;;;15.08;32.24
44079;BME280;29744;49.078;12.878;2023-02-17T05:38:58;97042.53;;;15.25;31.89
44079;BME280;29744;49.078;12.878;2023-02-17T05:43:58;97059.91;;;15.41;31.53
44079;BME280;29744;49.078;12.878;2023-02-17T05:48:59;97045.63;;;15.58;31.51
44079;BME280;29744;49.078;12.878;2023-02-17T05:53:59;97041.34;;;15.74;31.76
44079;BME280;29744;49.078;12.878;2023-02-17T05:58:59;97039.31;;;15.89;31.34
44079;BME280;29744;49.078;12.878;2023-02-17T06:04:00;97036.94;;;16.04;31.52
44079;BME280;29744;49.078;12.878;2023-02-17T06:09:00;97019.75;;;16.18;31.25
44079;BME280;29744;49.078;12.878;2023-02-17T06:14:00;97017.66;;;16.32;31.17
44079;BME280;29744;49.078;12.878;2023-02-17T06:19:01;97016.72;;;16.45;31.19
44079;BME280;29744;49.078;12.878;2023-02-17T06:24:01;97012.25;;;16.58;30.99
44079;BME280;29744;49.078;12.878;2023-02-17T06:29:02;97016.19;;;16.69;30.90
44079;BME280;29744;49.078;12.878;2023-02-17T06:34:02;97011.53;;;16.78;30.57
44079;BME280;29744;49.078;12.878;2023-02-17T06:39:02;97001.78;;;16.86;30.73
44079;BME280;29744;49.078;12.878;2023-02-17T06:44:03;97017.88;;;16.91;30.75
44079;BME280;29744;49.078;12.878;2023-02-17T06:49:04;97011.00;;;16.93;30.49
44079;BME280;29744;49.078;12.878;2023-02-17T06:54:04;97008.13;;;16.98;30.47
44079;BME280;29744;49.078;12.878;2023-02-17T06:59:04;97005.41;;;16.98;30.62
44079;BME280;29744;49.078;12.878;2023-02-17T07:04:05;97000.00;;;16.98;30.37
44079;BME280;29744;49.078;12.878;2023-02-17T07:09:05;97002.69;;;16.98;30.45
44079;BME280;29744;49.078;12.878;2023-02-17T07:14:05;97002.22;;;16.96;30.58
44079;BME280;29744;49.078;12.878;2023-02-17T07:19:05;97006.38;;;16.94;30.26
44079;BME280;29744;49.078;12.878;2023-02-17T07:24:06;97015.97;;;16.91;30.78
44079;BME280;29744;49.078;12.878;2023-02-17T07:29:06;97020.44;;;16.87;30.77
44079;BME280;29744;49.078;12.878;2023-02-17T07:34:07;97027.28;;;16.85;30.67
44079;BME280;29744;49.078;12.878;2023-02-17T07:39:07;97028.28;;;16.80;30.66
44079;BME280;29744;49.078;12.878;2023-02-17T07:44:08;97019.19;;;16.76;30.53
44079;BME280;29744;49.078;12.878;2023-02-17T07:49:09;97021.28;;;16.70;30.54
44079;BME280;29744;49.078;12.878;2023-02-17T07:54:09;97018.75;;;16.65;30.76
44079;BME280;29744;49.078;12.878;2023-02-17T07:59:13;97031.34;;;16.61;30.54
44079;BME280;29744;49.078;12.878;2023-02-17T08:04:14;97029.59;;;16.57;30.85
44079;BME280;29744;49.078;12.878;2023-02-17T08:09:15;97036.28;;;16.51;30.46
44079;BME280;29744;49.078;12.878;2023-02-17T08:14:33;97020.22;;;16.46;30.52
44079;BME280;29744;49.078;12.878;2023-02-17T08:19:34;97016.56;;;16.41;30.80
44079;BME280;29744;49.078;12.878;2023-02-17T08:24:34;97012.06;;;16.37;30.76
44079;BME280;29744;49.078;12.878;2023-02-17T08:29:34;97015.75;;;16.32;30.85
44079;BME280;29744;49.078;12.878;2023-02-17T08:34:34;97022.13;;;16.28;30.82
44079;BME280;29744;49.078;12.878;2023-02-17T08:39:35;97018.47;;;16.24;30.94
44079;BME280;29744;49.078;12.878;2023-02-17T08:44:36;97022.94;;;16.20;30.87
44079;BME280;29744;49.078;12.878;2023-02-17T08:49:36;97026.59;;;16.15;31.08
44079;BME280;29744;49.078;12.878;2023-02-17T08:54:37;97014.81;;;16.11;30.89
44079;BME280;29744;49.078;12.878;2023-02-17T08:59:37;96994.59;;;16.08;30.93
44079;BME280;29744;49.078;12.878;2023-02-17T09:04:37;97008.78;;;16.05;30.98
44079;BME280;29744;49.078;12.878;2023-02-17T09:09:38;97012.44;;;16.01;31.02
44079;BME280;29744;49.078;12.878;2023-02-17T09:14:39;97002.56;;;15.96;31.15
44079;BME280;29744;49.078;12.878;2023-02-17T09:19:39;97016.72;;;15.93;31.31
44079;BME280;29744;49.078;12.878;2023-02-17T09:24:39;97026.59;;;15.89;31.30
44079;BME280;29744;49.078;12.878;2023-02-17T09:29:40;97010.22;;;15.86;30.90
44079;BME280;29744;49.078;12.878;2023-02-17T09:34:40;97015.47;;;15.82;31.13
44079;BME280;29744;49.078;12.878;2023-02-17T09:39:48;97005.25;;;15.79;31.44
44079;BME280;29744;49.078;12.878;2023-02-17T09:44:55;96992.34;;;15.76;31.40
44079;BME280;29744;49.078;12.878;2023-02-17T09:50:10;97014.16;;;15.71;31.15
44079;BME280;29744;49.078;12.878;2023-02-17T09:55:19;96992.34;;;15.67;31.43
44079;BME280;29744;49.078;12.878;2023-02-17T10:00:34;96981.38;;;15.64;31.46
44079;BME280;29744;49.078;12.878;2023-02-17T10:05:44;96982.00;;;15.61;31.09
44079;BME280;29744;49.078;12.878;2023-02-17T10:10:59;96999.97;;;15.57;31.40
44079;BME280;29744;49.078;12.878;2023-02-17T10:16:05;96996.00;;;15.54;31.28
44079;BME280;29744;49.078;12.878;2023-02-17T10:21:10;96995.53;;;15.52;31.58
44079;BME280;29744;49.078;12.878;2023-02-17T10:26:47;97003.00;;;15.46;31.42
44079;BME280;29744;49.078;12.878;2023-02-17T10:37:02;97030.97;;;15.42;31.45
44079;BME280;29744;49.078;12.878;2023-02-17T10:42:03;97009.66;;;15.40;31.21
44079;BME280;29744;49.078;12.878;2023-02-17T10:47:04;97016.81;;;15.36;31.67
44079;BME280;29744;49.078;12.878;2023-02-17T10:57:18;96998.03;;;15.31;31.69
44079;BME280;29744;49.078;12.878;2023-02-17T11:02:21;96996.75;;;15.29;31.50
44079;BME280;29744;49.078;12.878;2023-02-17T11:07:35;96981.47;;;15.24;31.58
44079;BME280;29744;49.078;12.878;2023-02-17T11:12:40;96974.81;;;15.22;31.45
44079;BME280;29744;49.078;12.878;2023-02-17T11:17:40;96967.00;;;15.20;31.60
44079;BME280;29744;49.078;12.878;2023-02-17T11:22:47;96955.72;;;15.18;31.53
44079;BME280;29744;49.078;12.878;2023-02-17T11:27:52;96961.75;;;15.15;31.75
44079;BME280;29744;49.078;12.878;2023-02-17T11:32:53;96965.88;;;15.12;31.85
44079;BME280;29744;49.078;12.878;2023-02-17T11:38:02;96970.00;;;15.10;31.96
44079;BME280;29744;49.078;12.878;2023-02-17T11:43:03;96966.03;;;15.07;31.58
44079;BME280;29744;49.078;12.878;2023-02-17T12:04:09;96938.47;;;14.97;31.62
44079;BME280;29744;49.078;12.878;2023-02-17T12:09:26;96942.28;;;14.96;31.87
44079;BME280;29744;49.078;12.878;2023-02-17T12:24:52;96935.75;;;14.88;31.63
44079;BME280;29744;49.078;12.878;2023-02-17T12:35:24;96921.28;;;14.84;31.71
44079;BME280;29744;49.078;12.878;2023-02-17T12:40:39;96927.00;;;14.82;31.71
44079;BME280;29744;49.078;12.878;2023-02-17T12:45:43;96924.63;;;14.81;32.04
44079;BME280;29744;49.078;12.878;2023-02-17T12:50:58;96912.84;;;14.77;32.36
44079;BME280;29744;49.078;12.878;2023-02-17T12:56:02;96904.75;;;14.77;31.98
44079;BME280;29744;49.078;12.878;2023-02-17T13:01:07;96894.28;;;14.75;32.25
44079;BME280;29744;49.078;12.878;2023-02-17T13:06:31;96905.69;;;14.72;32.08
44079;BME280;29744;49.078;12.878;2023-02-17T13:11:34;96908.41;;;14.72;32.23
44079;BME280;29744;49.078;12.878;2023-02-17T13:16:45;96890.13;;;14.69;31.80
44079;BME280;29744;49.078;12.878;2023-02-17T13:21:53;96895.03;;;14.67;32.33
44079;BME280;29744;49.078;12.878;2023-02-17T13:26:53;96896.94;;;14.67;32.35
44079;BME280;29744;49.078;12.878;2023-02-17T13:31:58;96889.97;;;14.66;31.93
44079;BME280;29744;49.078;12.878;2023-02-17T13:37:13;96898.66;;;14.54;32.54
44079;BME280;29744;49.078;12.878;2023-02-17T13:47:35;96903.13;;;14.59;31.90
44079;BME280;29744;49.078;12.878;2023-02-17T13:52:35;96906.13;;;14.57;31.96
44079;BME280;29744;49.078;12.878;2023-02-17T13:57:36;96920.72;;;14.56;32.51
44079;BME280;29744;49.078;12.878;2023-02-17T14:02:44;96928.81;;;14.56;32.28
44079;BME280;29744;49.078;12.878;2023-02-17T14:07:46;96922.16;;;14.54;32.04
44079;BME280;29744;49.078;12.878;2023-02-17T14:12:48;96925.16;;;14.52;32.52
44079;BME280;29744;49.078;12.878;2023-02-17T14:17:48;96932.44;;;14.52;32.35
44079;BME280;29744;49.078;12.878;2023-02-17T14:22:58;96937.69;;;14.48;32.64
44079;BME280;29744;49.078;12.878;2023-02-17T14:27:59;96928.78;;;14.47;32.68
44079;BME280;29744;49.078;12.878;2023-02-17T14:33:21;96934.81;;;14.44;32.45
44079;BME280;29744;49.078;12.878;2023-02-17T14:38:30;96910.16;;;14.37;32.80
44079;BME280;29744;49.078;12.878;2023-02-17T14:43:36;96902.66;;;14.26;32.79
44079;BME280;29744;49.078;12.878;2023-02-17T14:48:37;96884.19;;;14.19;32.63
44079;BME280;29744;49.078;12.878;2023-02-17T14:53:37;96893.38;;;14.18;32.68
44079;BME280;29744;49.078;12.878;2023-02-17T14:58:39;96897.97;;;14.17;32.62
44079;BME280;29744;49.078;12.878;2023-02-17T15:03:39;96880.69;;;14.18;32.53
44079;BME280;29744;49.078;12.878;2023-02-17T15:08:40;96875.31;;;14.18;32.77
44079;BME280;29744;49.078;12.878;2023-02-17T15:13:42;96874.50;;;14.18;32.55
44079;BME280;29744;49.078;12.878;2023-02-17T15:18:43;96863.72;;;14.18;32.82
44079;BME280;29744;49.078;12.878;2023-02-17T15:23:43;96847.53;;;14.18;32.63
44079;BME280;29744;49.078;12.878;2023-02-17T15:28:43;96856.72;;;14.17;32.85
44079;BME280;29744;49.078;12.878;2023-02-17T15:33:44;96845.16;;;14.16;32.47
44079;BME280;29744;49.078;12.878;2023-02-17T15:38:44;96858.63;;;14.16;32.78
44079;BME280;29744;49.078;12.878;2023-02-17T15:43:46;96837.38;;;14.15;32.45
44079;BME280;29744;49.078;12.878;2023-02-17T15:48:47;96838.16;;;14.15;33.06
44079;BME280;29744;49.078;12.878;2023-02-17T15:53:49;96849.25;;;14.14;33.02
44079;BME280;29744;49.078;12.878;2023-02-17T15:58:50;96828.47;;;14.14;33.21
44079;BME280;29744;49.078;12.878;2023-02-17T16:03:52;96818.00;;;14.13;32.93
44079;BME280;29744;49.078;12.878;2023-02-17T16:08:53;96821.81;;;14.12;32.93
44079;BME280;29744;49.078;12.878;2023-02-17T16:13:54;96823.41;;;14.13;32.97
44079;BME280;29744;49.078;12.878;2023-02-17T16:18:55;96844.66;;;14.14;32.90
44079;BME280;29744;49.078;12.878;2023-02-17T16:23:55;96836.44;;;14.19;32.81
44079;BME280;29744;49.078;12.878;2023-02-17T16:29:00;96824.44;;;14.26;32.78
44079;BME280;29744;49.078;12.878;2023-02-17T16:34:00;96821.28;;;14.32;32.69
44079;BME280;29744;49.078;12.878;2023-02-17T16:39:12;96830.19;;;14.41;32.43
44079;BME280;29744;49.078;12.878;2023-02-17T16:44:17;96843.09;;;14.53;32.69
44079;BME280;29744;49.078;12.878;2023-02-17T16:49:23;96838.97;;;14.64;32.60
44079;BME280;29744;49.078;12.878;2023-02-17T16:54:27;96839.16;;;14.76;32.55
44079;BME280;29744;49.078;12.878;2023-02-17T16:59:28;96850.16;;;14.89;32.54
44079;BME280;29744;49.078;12.878;2023-02-17T17:04:28;96851.13;;;15.01;32.29
44079;BME280;29744;49.078;12.878;2023-02-17T17:09:28;96871.00;;;15.14;32.30
44079;BME280;29744;49.078;12.878;2023-02-17T17:14:29;96882.47;;;15.28;32.23
44079;BME280;29744;49.078;12.878;2023-02-17T17:19:29;96884.22;;;15.41;32.28
44079;BME280;29744;49.078;12.878;2023-02-17T17:24:30;96871.34;;;15.56;32.45
44079;BME280;29744;49.078;12.878;2023-02-17T17:29:30;96857.31;;;15.71;32.04
44079;BME280;29744;49.078;12.878;2023-02-17T17:34:30;96859.53;;;15.86;31.86
44079;BME280;29744;49.078;12.878;2023-02-17T17:39:31;96870.16;;;16.00;32.12
44079;BME280;29744;49.078;12.878;2023-02-17T17:44:31;96861.06;;;16.13;31.83
44079;BME280;29744;49.078;12.878;2023-02-17T17:49:32;96881.72;;;16.26;31.66
44079;BME280;29744;49.078;12.878;2023-02-17T17:54:32;96871.78;;;16.39;31.71
44079;BME280;29744;49.078;12.878;2023-02-17T17:59:33;96866.50;;;16.51;31.19
44079;BME280;29744;49.078;12.878;2023-02-17T18:04:33;96859.63;;;16.62;31.38
44079;BME280;29744;49.078;12.878;2023-02-17T18:09:35;96851.59;;;16.75;31.53
44079;BME280;29744;49.078;12.878;2023-02-17T18:14:38;96848.50;;;16.85;31.22
44079;BME280;29744;49.078;12.878;2023-02-17T18:19:39;96843.03;;;16.93;31.43
44079;BME280;29744;49.078;12.878;2023-02-17T18:24:40;96842.97;;;17.02;31.13
44079;BME280;29744;49.078;12.878;2023-02-17T18:29:41;96865.38;;;17.11;30.79
44079;BME280;29744;49.078;12.878;2023-02-17T18:34:41;96867.56;;;17.18;30.97
44079;BME280;29744;49.078;12.878;2023-02-17T18:39:41;96858.91;;;17.24;30.66
44079;BME280;29744;49.078;12.878;2023-02-17T18:44:42;96860.19;;;17.27;30.55
44079;BME280;29744;49.078;12.878;2023-02-17T18:49:42;96859.22;;;17.31;30.83
44079;BME280;29744;49.078;12.878;2023-02-17T18:54:44;96871.63;;;17.32;31.08
44079;BME280;29744;49.078;12.878;2023-02-17T18:59:44;96858.09;;;17.32;30.45
44079;BME280;29744;49.078;12.878;2023-02-17T19:04:44;96862.72;;;17.32;30.90
44079;BME280;29744;49.078;12.878;2023-02-17T19:09:45;96860.78;;;17.32;30.46
44079;BME280;29744;49.078;12.878;2023-02-17T19:14:45;96878.19;;;17.31;30.71
44079;BME280;29744;49.078;12.878;2023-02-17T19:19:47;96890.94;;;17.31;30.66
44079;BME280;29744;49.078;12.878;2023-02-17T19:24:52;96893.66;;;17.31;30.98
44079;BME280;29744;49.078;12.878;2023-02-17T19:29:52;96884.72;;;17.30;30.76
44079;BME280;29744;49.078;12.878;2023-02-17T19:34:53;96899.41;;;17.29;30.78
44079;BME280;29744;49.078;12.878;2023-02-17T19:39:53;96885.84;;;17.29;30.42
44079;BME280;29744;49.078;12.878;2023-02-17T19:44:53;96884.72;;;17.30;30.69
44079;BME280;29744;49.078;12.878;2023-02-17T19:49:54;96899.41;;;17.29;30.95
44079;BME280;29744;49.078;12.878;2023-02-17T19:54:54;96902.13;;;17.29;30.64
44079;BME280;29744;49.078;12.878;2023-02-17T19:59:54;96901.00;;;17.30;30.72
44079;BME280;29744;49.078;12.878;2023-02-17T20:04:55;96895.91;;;17.29;30.72
44079;BME280;29744;49.078;12.878;2023-02-17T20:09:55;96897.03;;;17.28;30.80
44079;BME280;29744;49.078;12.878;2023-02-17T20:14:55;96891.09;;;17.26;30.62
44079;BME280;29744;49.078;12.878;2023-02-17T20:19:56;96905.78;;;17.25;30.78
44079;BME280;29744;49.078;12.878;2023-02-17T20:24:56;96899.44;;;17.21;30.47
44079;BME280;29744;49.078;12.878;2023-02-17T20:29:57;96905.50;;;17.18;30.83
44079;BME280;29744;49.078;12.878;2023-02-17T20:34:58;96901.88;;;17.14;30.96
44079;BME280;29744;49.078;12.878;2023-02-17T20:39:58;96904.13;;;17.12;31.07
44079;BME280;29744;49.078;12.878;2023-02-17T20:44:59;96911.00;;;17.09;30.75
44079;BME280;29744;49.078;12.878;2023-02-17T20:49:59;96915.94;;;17.07;30.59
44079;BME280;29744;49.078;12.878;2023-02-17T20:54:59;96894.59;;;17.05;31.02
44079;BME280;29744;49.078;12.878;2023-02-17T21:00:00;96892.22;;;17.04;30.58
44079;BME280;29744;49.078;12.878;2023-02-17T21:05:00;96912.31;;;17.03;31.16
44079;BME280;29744;49.078;12.878;2023-02-17T21:10:00;96898.63;;;16.99;31.18
44079;BME280;29744;49.078;12.878;2023-02-17T21:15:01;96909.78;;;16.98;30.95
44079;BME280;29744;49.078;12.878;2023-02-17T21:20:02;96913.94;;;16.95;31.25
44079;BME280;29744;49.078;12.878;2023-02-17T21:25:03;96920.81;;;16.93;30.65
44079;BME280;29744;49.078;12.878;2023-02-17T21:30:05;96923.38;;;16.89;30.95
44079;BME280;29744;49.078;12.878;2023-02-17T21:35:08;96918.63;;;16.86;31.09
44079;BME280;29744;49.078;12.878;2023-02-17T21:40:09;96924.22;;;16.81;31.24
44079;BME280;29744;49.078;12.878;2023-02-17T21:45:09;96921.84;;;16.80;31.28
44079;BME280;29744;49.078;12.878;2023-02-17T21:50:10;96929.34;;;16.74;31.21
44079;BME280;29744;49.078;12.878;2023-02-17T21:55:10;96936.22;;;16.71;31.04
44079;BME280;29744;49.078;12.878;2023-02-17T22:00:11;96936.41;;;16.66;31.44
44079;BME280;29744;49.078;12.878;2023-02-17T22:05:12;96941.66;;;16.63;31.00
44079;BME280;29744;49.078;12.878;2023-02-17T22:10:12;96945.03;;;16.60;30.96
44079;BME280;29744;49.078;12.878;2023-02-17T22:15:12;96949.50;;;16.56;31.30
44079;BME280;29744;49.078;12.878;2023-02-17T22:20:15;96953.16;;;16.51;31.23
44079;BME280;29744;49.078;12.878;2023-02-17T22:25:15;96954.13;;;16.47;31.41
44079;BME280;29744;49.078;12.878;2023-02-17T22:30:16;96952.06;;;16.44;31.54
44079;BME280;29744;49.078;12.878;2023-02-17T22:35:16;96955.69;;;16.39;31.53
44079;BME280;29744;49.078;12.878;2023-02-17T22:40:19;96956.34;;;16.36;31.64
44079;BME280;29744;49.078;12.878;2023-02-17T22:45:20;96951.59;;;16.33;31.14
44079;BME280;29744;49.078;12.878;2023-02-17T22:50:20;96939.00;;;16.28;31.23
44079;BME280;29744;49.078;12.878;2023-02-17T22:55:20;96946.19;;;16.24;31.78
44079;BME280;29744;49.078;12.878;2023-02-17T23:00:21;96940.63;;;16.21;31.27
44079;BME280;29744;49.078;12.878;2023-02-17T23:05:21;96950.50;;;16.17;31.72
44079;BME280;29744;49.078;12.878;2023-02-17T23:10:21;96954.97;;;16.13;31.52
44079;BME280;29744;49.078;12.878;2023-02-17T23:15:22;96940.16;;;16.10;31.37
44079;BME280;29744;49.078;12.878;2023-02-17T23:20:40;96955.47;;;16.06;31.78
44079;BME280;29744;49.078;12.878;2023-02-17T23:25:46;96950.38;;;16.04;31.71
44079;BME280;29744;49.078;12.878;2023-02-17T23:30:48;96936.22;;;15.99;31.60
44079;BME280;29744;49.078;12.878;2023-02-17T23:35:48;96941.16;;;15.97;31.74
44079;BME280;29744;49.078;12.878;2023-02-17T23:40:50;96942.09;;;15.92;31.75
44079;BME280;29744;49.078;12.878;2023-02-17T23:45:55;96945.44;;;15.89;31.81
44079;BME280;29744;49.078;12.878;2023-02-17T23:51:01;96943.38;;;15.86;31.57
44079;BME280;29744;49.078;12.878;2023-02-17T23:56:07;96945.94;;;15.83;31.69
